Time;durP1;ratioP1;P1;durP2;ratioP2;P2;SDS_P1;SDS_P2;PMS_P1;PMS_P2;Temp;Humidity;BMP_temperature;BMP_pressure;BME280_temperature;BME280_humidity;BME280_pressure;Samples;Min_cycle;Max_cycle;Signal;HPM_P1;HPM_P2
2023/10/28 00:01:15;;;;;;;10.50;2.23;;;12.80;99.90;;;;;;7283653;19;20495;-89
2023/10/28 00:03:41;;;;;;;10.63;2.57;;;12.80;99.90;;;;;;7284458;19;20217;-90
2023/10/28 00:06:07;;;;;;;11.83;2.27;;;12.80;99.90;;;;;;7283688;19;20193;-90
2023/10/28 00:08:34;;;;;;;9.20;2.47;;;12.80;99.90;;;;;;7304001;19;20193;-90
2023/10/28 00:11:04;;;;;;;7.67;2.00;;;12.80;99.90;;;;;;7282390;19;20200;-89
2023/10/28 00:13:30;;;;;;;6.73;1.97;;;12.90;99.90;;;;;;7283894;19;20708;-89
2023/10/28 00:15:56;;;;;;;9.53;2.33;;;12.90;99.90;;;;;;7281237;19;20186;-90
2023/10/28 00:18:22;;;;;;;9.63;2.67;;;12.90;99.90;;;;;;7283980;19;20253;-90
2023/10/28 00:20:48;;;;;;;9.60;2.63;;;12.90;99.90;;;;;;7283010;19;20264;-89
2023/10/28 00:23:14;;;;;;;10.13;2.50;;;12.90;99.90;;;;;;7281912;19;20189;-90
2023/10/28 00:25:41;;;;;;;10.23;3.03;;;12.80;99.90;;;;;;7280733;19;20187;-89
2023/10/28 00:28:07;;;;;;;8.33;2.67;;;12.80;99.90;;;;;;7288924;19;20177;-90
2023/10/28 00:30:33;;;;;;;12.43;2.60;;;12.70;99.90;;;;;;7311117;19;20192;-89
2023/10/28 00:32:59;;;;;;;8.77;2.87;;;12.60;99.90;;;;;;7288989;19;20181;-89
2023/10/28 00:35:28;;;;;;;7.63;2.87;;;12.60;99.90;;;;;;7289966;19;20231;-90
2023/10/28 00:37:54;;;;;;;9.13;2.90;;;12.60;99.90;;;;;;7289432;19;20579;-90
2023/10/28 00:40:20;;;;;;;8.53;3.27;;;12.50;99.90;;;;;;7288196;19;20193;-90
2023/10/28 00:42:46;;;;;;;9.40;2.90;;;12.40;99.90;;;;;;7287544;19;20197;-90
2023/10/28 00:45:16;;;;;;;9.27;2.57;;;12.40;99.90;;;;;;7289711;19;20914;-90
2023/10/28 00:47:44;;;;;;;6.57;2.67;;;12.40;99.90;;;;;;7288548;19;20249;-90
2023/10/28 00:50:12;;;;;;;10.07;3.13;;;12.40;99.90;;;;;;7287894;19;20189;-90
2023/10/28 00:52:50;;;;;;;7.57;2.43;;;12.40;99.90;;;;;;7286550;19;20197;-90
2023/10/28 00:55:18;;;;;;;7.63;2.83;;;12.40;99.90;;;;;;7289530;19;20715;-90
2023/10/28 00:57:45;;;;;;;8.53;2.73;;;12.30;99.90;;;;;;7288987;19;20224;-90
2023/10/28 01:00:12;;;;;;;7.57;2.50;;;12.40;99.90;;;;;;7288868;19;20181;-90
2023/10/28 01:02:39;;;;;;;6.87;2.47;;;12.50;99.90;;;;;;7287571;19;20193;-88
2023/10/28 01:05:11;;;;;;;9.63;2.60;;;12.50;99.90;;;;;;7304737;19;20184;-90
2023/10/28 01:07:39;;;;;;;7.63;2.70;;;12.50;99.90;;;;;;7288988;19;20286;-90
2023/10/28 01:10:08;;;;;;;9.50;2.53;;;12.50;99.90;;;;;;7295567;19;20189;-90
2023/10/28 01:12:35;;;;;;;9.70;2.43;;;12.60;99.90;;;;;;7311160;19;20192;-90
2023/10/28 01:15:01;;;;;;;8.10;2.60;;;12.50;99.90;;;;;;7288158;19;20188;-90
2023/10/28 01:17:29;;;;;;;8.30;2.80;;;12.60;99.90;;;;;;7285295;19;20198;-90
2023/10/28 01:19:56;;;;;;;10.97;2.73;;;12.60;99.90;;;;;;7288382;19;20186;-90
2023/10/28 01:22:26;;;;;;;8.30;2.77;;;12.60;99.90;;;;;;7288875;19;20193;-91
2023/10/28 01:24:52;;;;;;;10.33;2.93;;;12.60;99.90;;;;;;7286899;19;20212;-90
2023/10/28 01:27:19;;;;;;;8.57;2.93;;;12.50;99.90;;;;;;7288915;19;20190;-90
2023/10/28 01:29:48;;;;;;;11.27;3.10;;;12.50;99.90;;;;;;7287587;19;20182;-90
2023/10/28 01:32:14;;;;;;;7.97;2.63;;;12.50;99.90;;;;;;7289009;19;20194;-89
2023/10/28 01:34:49;;;;;;;9.23;3.03;;;12.40;99.90;;;;;;7287569;19;20284;-89
2023/10/28 01:37:18;;;;;;;8.63;2.97;;;12.40;99.90;;;;;;7286859;19;20214;-90
2023/10/28 01:39:48;;;;;;;12.13;3.00;;;12.40;99.90;;;;;;7286783;19;20214;-90
2023/10/28 01:42:15;;;;;;;9.27;2.83;;;12.20;99.90;;;;;;7286611;19;20210;-89
2023/10/28 01:44:41;;;;;;;10.10;3.07;;;12.20;99.90;;;;;;7286492;19;20210;-90
2023/10/28 01:47:10;;;;;;;11.47;2.93;;;12.20;99.90;;;;;;7288973;19;20564;-89
2023/10/28 01:49:36;;;;;;;10.50;2.93;;;12.30;99.90;;;;;;7293638;19;20181;-89
2023/10/28 01:52:03;;;;;;;11.97;2.93;;;12.30;99.90;;;;;;7309044;19;20203;-90
2023/10/28 01:54:33;;;;;;;9.13;3.10;;;12.40;99.90;;;;;;7287624;19;20192;-90
2023/10/28 01:57:00;;;;;;;8.70;2.70;;;12.50;99.90;;;;;;7287464;19;20613;-90
2023/10/28 01:59:26;;;;;;;10.33;3.13;;;12.40;99.90;;;;;;7287234;19;20231;-90
2023/10/28 02:01:52;;;;;;;11.93;3.10;;;12.30;99.90;;;;;;7287667;19;20197;-90
2023/10/28 02:04:18;;;;;;;9.37;2.80;;;12.40;99.90;;;;;;7287252;19;20189;-90
2023/10/28 02:06:44;;;;;;;11.87;3.33;;;12.30;99.90;;;;;;7287344;19;20189;-90
2023/10/28 02:09:10;;;;;;;10.37;2.87;;;12.30;99.90;;;;;;7285085;19;20214;-90
2023/10/28 02:11:39;;;;;;;11.10;2.80;;;12.30;99.90;;;;;;7295764;19;20281;-90
2023/10/28 02:14:08;;;;;;;10.73;2.90;;;12.40;99.90;;;;;;7308165;19;20534;-91
2023/10/28 02:16:37;;;;;;;10.93;2.93;;;12.40;99.90;;;;;;7286211;19;20192;-90
2023/10/28 02:19:04;;;;;;;6.83;2.40;;;12.30;99.90;;;;;;7288137;19;20736;-91
2023/10/28 02:21:29;;;;;;;11.67;3.10;;;12.40;99.90;;;;;;7286316;19;20184;-90
2023/10/28 02:23:55;;;;;;;15.53;3.10;;;12.40;99.90;;;;;;7285854;19;20201;-90
2023/10/28 02:26:22;;;;;;;10.43;2.87;;;12.50;99.90;;;;;;7287205;19;20263;-90
2023/10/28 02:28:48;;;;;;;12.17;3.07;;;12.50;99.90;;;;;;7285435;19;20220;-90
2023/10/28 02:31:14;;;;;;;10.00;3.00;;;12.50;99.90;;;;;;7284955;19;20217;-89
2023/10/28 02:33:40;;;;;;;10.27;2.93;;;12.40;99.90;;;;;;7286638;19;20668;-91
2023/10/28 02:36:07;;;;;;;12.80;3.00;;;12.40;99.90;;;;;;7300801;19;20207;-90
2023/10/28 02:38:33;;;;;;;14.67;3.53;;;12.40;99.90;;;;;;7307690;19;20199;-90
2023/10/28 02:40:59;;;;;;;11.17;3.30;;;12.50;99.90;;;;;;7284322;19;20262;-90
2023/10/28 02:43:25;;;;;;;12.67;3.33;;;12.50;99.90;;;;;;7285533;19;20189;-90
2023/10/28 02:45:50;;;;;;;15.13;3.40;;;12.50;99.90;;;;;;7286787;19;20193;-90
2023/10/28 02:48:16;;;;;;;13.10;3.30;;;12.60;99.90;;;;;;7285556;19;20204;-91
2023/10/28 02:50:42;;;;;;;13.03;3.23;;;12.60;99.90;;;;;;7282748;19;20228;-91
2023/10/28 02:53:08;;;;;;;13.53;3.50;;;12.60;99.90;;;;;;7285464;19;20204;-91
2023/10/28 02:55:37;;;;;;;13.10;2.97;;;12.50;99.90;;;;;;7306844;19;20185;-90
2023/10/28 02:58:04;;;;;;;11.80;3.43;;;12.60;99.90;;;;;;7285367;19;20216;-90
2023/10/28 03:00:30;;;;;;;10.73;3.00;;;12.70;99.90;;;;;;7284709;19;20192;-91
2023/10/28 03:02:57;;;;;;;12.17;3.03;;;12.60;99.90;;;;;;7285114;19;20194;-90
2023/10/28 03:05:24;;;;;;;13.50;3.00;;;12.50;99.90;;;;;;7287857;19;20629;-90
2023/10/28 03:07:50;;;;;;;10.40;2.83;;;12.40;99.90;;;;;;7285313;19;20194;-90
2023/10/28 03:10:16;;;;;;;13.50;3.00;;;12.50;99.90;;;;;;7281963;19;20210;-90
2023/10/28 03:12:42;;;;;;;15.30;3.20;;;12.40;99.90;;;;;;7285380;19;20197;-90
2023/10/28 03:15:10;;;;;;;11.57;2.47;;;12.40;99.90;;;;;;7284650;19;20260;-90
2023/10/28 03:17:36;;;;;;;11.43;2.80;;;12.40;99.90;;;;;;7297045;19;20191;-90
2023/10/28 03:20:03;;;;;;;11.53;3.10;;;12.50;99.90;;;;;;7307377;19;20185;-91
2023/10/28 03:22:29;;;;;;;12.17;2.43;;;12.50;99.90;;;;;;7283327;19;20185;-90
2023/10/28 03:24:55;;;;;;;9.33;2.70;;;12.60;99.90;;;;;;7284526;19;20288;-90
2023/10/28 03:27:20;;;;;;;10.37;2.63;;;12.60;99.90;;;;;;7285004;19;20244;-90
2023/10/28 03:29:46;;;;;;;11.97;2.50;;;12.60;99.90;;;;;;7285216;19;20189;-90
2023/10/28 03:32:12;;;;;;;11.37;2.33;;;12.60;99.90;;;;;;7283352;19;20684;-89
2023/10/28 03:34:39;;;;;;;8.73;1.97;;;12.60;99.90;;;;;;7281698;19;20206;-90
2023/10/28 03:37:05;;;;;;;9.37;2.10;;;12.70;99.90;;;;;;7306810;19;20188;-90
2023/10/28 03:39:31;;;;;;;11.20;2.40;;;12.80;99.90;;;;;;7284704;19;20531;-91
2023/10/28 03:41:57;;;;;;;17.23;2.60;;;12.80;99.90;;;;;;7284241;19;20189;-90
2023/10/28 03:44:23;;;;;;;10.63;2.40;;;12.90;99.90;;;;;;7285286;19;20186;-90
2023/10/28 03:46:49;;;;;;;11.70;2.20;;;12.90;99.90;;;;;;7284666;19;20185;-90
2023/10/28 03:49:15;;;;;;;11.10;2.20;;;13.00;99.90;;;;;;7283646;19;20212;-90
2023/10/28 03:51:41;;;;;;;13.47;2.10;;;13.00;99.90;;;;;;7284277;19;20688;-90
2023/10/28 03:54:07;;;;;;;6.07;1.80;;;13.00;99.90;;;;;;7299229;19;20185;-90
2023/10/28 03:56:33;;;;;;;11.40;2.20;;;12.90;99.90;;;;;;7304015;19;20306;-91
2023/10/28 03:59:00;;;;;;;9.47;2.00;;;12.90;99.90;;;;;;7284908;19;20186;-90
2023/10/28 04:01:25;;;;;;;12.87;2.07;;;12.80;99.90;;;;;;7285332;19;20228;-90
2023/10/28 04:03:51;;;;;;;13.43;2.23;;;12.80;99.90;;;;;;7289828;19;20293;-90
2023/10/28 04:06:17;;;;;;;10.67;2.40;;;12.90;99.90;;;;;;7291373;19;20200;-90
2023/10/28 04:08:42;;;;;;;11.67;2.43;;;12.90;99.90;;;;;;7288881;19;20215;-89
2023/10/28 04:11:10;;;;;;;12.67;2.30;;;13.00;99.90;;;;;;7288945;19;20197;-90
2023/10/28 04:13:35;;;;;;;9.67;2.10;;;12.90;99.90;;;;;;7309486;19;20205;-90
2023/10/28 04:16:01;;;;;;;14.20;2.33;;;12.90;99.90;;;;;;7300298;19;20261;-89
2023/10/28 04:18:27;;;;;;;12.33;1.90;;;12.90;99.90;;;;;;7289919;19;20979;-90
2023/10/28 04:20:53;;;;;;;12.60;2.13;;;12.80;99.90;;;;;;7289313;19;20240;-89
2023/10/28 04:23:18;;;;;;;16.40;2.47;;;12.90;99.90;;;;;;7289121;19;20215;-89
2023/10/28 04:25:44;;;;;;;15.37;2.70;;;13.00;99.90;;;;;;7287640;19;20552;-89
2023/10/28 04:28:10;;;;;;;20.67;3.30;;;13.10;99.90;;;;;;7286964;19;20220;-89
2023/10/28 04:30:36;;;;;;;9.53;2.07;;;13.10;99.90;;;;;;7303577;19;20193;-90
2023/10/28 04:33:04;;;;;;;16.10;2.50;;;13.10;99.90;;;;;;7305283;19;20891;-90
2023/10/28 04:35:30;;;;;;;14.93;2.20;;;13.10;99.90;;;;;;7289463;19;20302;-89
2023/10/28 04:37:56;;;;;;;12.13;2.27;;;13.20;99.90;;;;;;7290566;19;20296;-90
2023/10/28 04:40:22;;;;;;;18.77;2.40;;;13.20;99.90;;;;;;7290079;19;20198;-90
2023/10/28 04:42:47;;;;;;;22.97;2.63;;;13.20;99.90;;;;;;7288717;19;20241;-90
2023/10/28 04:45:13;;;;;;;12.20;2.20;;;13.30;99.90;;;;;;7288051;19;20222;-90
2023/10/28 04:47:39;;;;;;;15.83;2.20;;;13.40;99.90;;;;;;7288437;19;20654;-90
2023/10/28 04:50:06;;;;;;;15.23;2.43;;;13.40;99.90;;;;;;7311609;19;20189;-90
2023/10/28 04:52:31;;;;;;;13.10;2.00;;;13.30;99.90;;;;;;7289492;19;20190;-89
2023/10/28 04:54:58;;;;;;;12.63;2.27;;;13.30;99.90;;;;;;7289280;19;21122;-89
2023/10/28 04:57:24;;;;;;;14.43;2.40;;;13.30;99.90;;;;;;7290341;19;20190;-89
2023/10/28 04:59:50;;;;;;;19.07;2.77;;;13.20;99.90;;;;;;7289108;19;20196;-89
2023/10/28 05:02:16;;;;;;;14.43;2.00;;;13.20;99.90;;;;;;7288475;19;20194;-89
2023/10/28 05:04:41;;;;;;;14.90;2.00;;;13.20;99.90;;;;;;7288768;19;20566;-89
2023/10/28 05:07:07;;;;;;;11.53;2.13;;;13.30;99.90;;;;;;7291057;19;20257;-89
2023/10/28 05:09:33;;;;;;;15.63;2.83;;;13.30;99.90;;;;;;7310954;19;20681;-89
2023/10/28 05:12:00;;;;;;;14.10;2.27;;;13.40;99.90;;;;;;7288161;19;20190;-89
2023/10/28 05:14:25;;;;;;;14.37;2.17;;;13.40;99.90;;;;;;7286396;19;20198;-89
2023/10/28 05:16:55;;;;;;;12.17;2.10;;;13.30;99.90;;;;;;7288227;19;20201;-88
2023/10/28 05:19:22;;;;;;;14.70;2.07;;;13.30;99.90;;;;;;7289439;19;20187;-88
2023/10/28 05:21:48;;;;;;;16.83;2.13;;;13.40;99.90;;;;;;7287531;19;20193;-87
2023/10/28 05:24:15;;;;;;;14.70;2.23;;;13.40;99.90;;;;;;7289091;19;20590;-89
2023/10/28 05:26:43;;;;;;;13.77;2.37;;;13.20;99.90;;;;;;7286778;19;20661;-89
2023/10/28 05:29:09;;;;;;;16.97;2.30;;;13.20;99.90;;;;;;7288284;19;20193;-91
2023/10/28 05:31:36;;;;;;;16.33;2.60;;;13.20;99.90;;;;;;7310320;19;20212;-91
2023/10/28 05:34:02;;;;;;;11.67;2.23;;;13.20;99.90;;;;;;7289022;19;20199;-91
2023/10/28 05:36:28;;;;;;;10.90;2.30;;;13.20;99.90;;;;;;7286705;19;20213;-91
2023/10/28 05:38:54;;;;;;;14.30;2.00;;;13.30;99.90;;;;;;7287335;19;20193;-91
2023/10/28 05:41:20;;;;;;;16.03;2.33;;;13.30;99.90;;;;;;7287538;19;20612;-91
2023/10/28 05:43:47;;;;;;;9.90;2.00;;;13.30;99.90;;;;;;7287594;19;20544;-90
2023/10/28 05:46:13;;;;;;;12.07;1.93;;;13.40;99.90;;;;;;7287842;19;20184;-91
2023/10/28 05:48:39;;;;;;;13.17;2.20;;;13.40;99.90;;;;;;7286609;19;20198;-90
2023/10/28 05:51:05;;;;;;;17.83;2.40;;;13.40;99.90;;;;;;7310568;19;20186;-91
2023/10/28 05:53:31;;;;;;;11.60;1.73;;;13.40;99.90;;;;;;7287514;19;20209;-90
2023/10/28 05:55:57;;;;;;;12.87;2.17;;;13.50;99.90;;;;;;7287964;19;20253;-90
2023/10/28 05:58:24;;;;;;;9.80;1.87;;;13.30;99.90;;;;;;7287843;19;20217;-91
2023/10/28 06:00:49;;;;;;;12.67;2.20;;;13.30;99.90;;;;;;7287828;19;20555;-92
2023/10/28 06:03:15;;;;;;;13.90;2.17;;;13.30;99.90;;;;;;7285899;19;20190;-91
2023/10/28 06:05:41;;;;;;;15.93;2.77;;;13.30;99.90;;;;;;7287514;19;20181;-91
2023/10/28 06:08:08;;;;;;;12.00;2.00;;;13.40;99.90;;;;;;7294651;19;20200;-92
2023/10/28 06:10:34;;;;;;;12.63;2.37;;;13.40;99.90;;;;;;7309665;19;20202;-91
2023/10/28 06:13:01;;;;;;;9.37;1.97;;;13.50;99.90;;;;;;7287062;19;20184;-90
2023/10/28 06:15:27;;;;;;;10.83;2.80;;;13.50;99.90;;;;;;7285686;19;20190;-90
2023/10/28 06:17:53;;;;;;;10.40;1.93;;;13.40;99.90;;;;;;7284892;19;20189;-91
2023/10/28 06:20:20;;;;;;;14.53;1.90;;;13.30;99.90;;;;;;7287203;19;20181;-90
2023/10/28 06:22:46;;;;;;;11.63;2.30;;;13.20;99.90;;;;;;7288224;19;20249;-89
2023/10/28 06:25:14;;;;;;;14.60;2.23;;;13.30;99.90;;;;;;7285895;19;20181;-90
2023/10/28 06:27:40;;;;;;;14.73;2.03;;;13.30;99.90;;;;;;7285916;19;20212;-90
2023/10/28 06:30:07;;;;;;;12.37;2.37;;;13.20;99.90;;;;;;7303735;19;20689;-91
2023/10/28 06:32:34;;;;;;;14.77;2.27;;;13.20;99.90;;;;;;7306797;19;20201;-90
2023/10/28 06:35:00;;;;;;;11.93;2.17;;;13.20;99.90;;;;;;7287767;19;20198;-91
2023/10/28 06:37:26;;;;;;;11.03;1.90;;;13.30;99.90;;;;;;7285039;19;20191;-90
2023/10/28 06:39:52;;;;;;;15.47;2.43;;;13.20;99.90;;;;;;7286504;19;20208;-91
2023/10/28 06:42:17;;;;;;;13.27;1.87;;;13.20;99.90;;;;;;7289841;19;20193;-90
2023/10/28 06:44:43;;;;;;;9.20;1.77;;;13.30;99.90;;;;;;7290316;19;20183;-90
2023/10/28 06:47:11;;;;;;;13.50;2.20;;;13.20;99.90;;;;;;7287499;19;20520;-89
2023/10/28 06:49:37;;;;;;;11.67;2.07;;;13.30;99.90;;;;;;7303584;19;20193;-91
2023/10/28 06:52:03;;;;;;;12.13;2.20;;;13.30;99.90;;;;;;7302221;19;20404;-90
2023/10/28 06:54:29;;;;;;;14.70;2.20;;;13.30;99.90;;;;;;7284920;19;20190;-90
2023/10/28 06:56:58;;;;;;;12.30;1.90;;;13.40;99.90;;;;;;7284882;19;20201;-89
2023/10/28 06:59:24;;;;;;;12.90;2.23;;;13.40;99.90;;;;;;7276568;19;20193;-91
2023/10/28 07:01:50;;;;;;;10.10;1.60;;;13.40;99.90;;;;;;7290819;19;20201;-92
2023/10/28 07:04:15;;;;;;;10.90;2.10;;;13.30;99.90;;;;;;7287252;19;20177;-90
2023/10/28 07:06:41;;;;;;;11.20;1.90;;;13.40;99.90;;;;;;7286735;19;20612;-90
2023/10/28 07:09:07;;;;;;;9.63;1.80;;;13.40;99.90;;;;;;7306926;19;20644;-91
2023/10/28 07:11:33;;;;;;;12.47;1.93;;;13.40;99.90;;;;;;7286605;19;20202;-89
2023/10/28 07:13:58;;;;;;;10.00;1.60;;;13.40;99.90;;;;;;7285655;19;20228;-90
2023/10/28 07:16:29;;;;;;;12.77;1.70;;;13.60;99.90;;;;;;7284426;19;20188;-89
2023/10/28 07:18:55;;;;;;;10.53;1.80;;;13.80;99.90;;;;;;7284527;19;20194;-90
2023/10/28 07:21:21;;;;;;;12.40;1.80;;;13.80;99.90;;;;;;7283781;19;20678;-90
2023/10/28 07:23:47;;;;;;;12.40;2.00;;;13.80;99.90;;;;;;7286187;19;20556;-89
2023/10/28 07:26:12;;;;;;;10.47;2.03;;;13.80;99.90;;;;;;7285960;19;20185;-91
2023/10/28 07:28:40;;;;;;;10.83;2.07;;;13.70;99.90;;;;;;7289520;19;20562;-92
2023/10/28 07:31:06;;;;;;;14.80;2.43;;;13.80;99.90;;;;;;7305338;19;20665;-90
2023/10/28 07:33:32;;;;;;;9.97;1.80;;;13.80;99.90;;;;;;7285128;19;20186;-92
2023/10/28 07:36:02;;;;;;;10.63;1.70;;;14.00;99.90;;;;;;7286575;19;20281;-90
2023/10/28 07:38:28;;;;;;;13.63;1.80;;;13.80;99.90;;;;;;7297556;19;20183;-91
2023/10/28 07:40:54;;;;;;;8.93;1.70;;;13.90;99.90;;;;;;7294621;19;20214;-91
2023/10/28 07:43:20;;;;;;;11.20;1.97;;;13.90;99.90;;;;;;7294665;19;20194;-90
2023/10/28 07:45:46;;;;;;;11.30;1.60;;;13.90;99.90;;;;;;7294637;19;20200;-90
2023/10/28 07:48:12;;;;;;;14.13;1.83;;;14.00;99.90;;;;;;7295528;19;20192;-90
2023/10/28 07:50:39;;;;;;;9.43;1.50;;;14.10;99.90;;;;;;7306168;19;20193;-91
2023/10/28 07:53:05;;;;;;;13.17;2.20;;;14.10;99.90;;;;;;7316940;19;20195;-90
2023/10/28 07:55:32;;;;;;;10.50;1.87;;;14.10;99.90;;;;;;7294565;19;20197;-89
2023/10/28 07:57:58;;;;;;;9.70;1.53;;;14.20;99.90;;;;;;7296103;19;20292;-90
2023/10/28 08:00:23;;;;;;;13.63;2.00;;;14.30;99.90;;;;;;7294900;19;20540;-91
2023/10/28 08:02:51;;;;;;;11.07;1.70;;;14.20;99.90;;;;;;7294827;19;20193;-91
2023/10/28 08:05:17;;;;;;;12.70;1.63;;;14.30;99.90;;;;;;7299473;19;20190;-91
2023/10/28 08:07:43;;;;;;;9.40;1.70;;;14.10;99.90;;;;;;7298845;19;20313;-91
2023/10/28 08:10:09;;;;;;;11.00;1.53;;;14.00;99.90;;;;;;7296962;19;20248;-90
2023/10/28 08:12:35;;;;;;;8.23;1.40;;;14.10;99.90;;;;;;7317001;19;20191;-91
2023/10/28 08:15:02;;;;;;;6.50;1.50;;;14.10;99.90;;;;;;7292892;19;20199;-92
2023/10/28 08:17:31;;;;;;;10.60;2.53;;;14.00;99.90;;;;;;7290270;19;20185;-90
2023/10/28 08:19:57;;;;;;;7.33;2.20;;;14.00;99.90;;;;;;7297474;19;20200;-90
2023/10/28 08:22:24;;;;;;;6.50;1.63;;;14.00;99.90;;;;;;7293783;19;20191;-90
2023/10/28 08:24:50;;;;;;;12.80;2.10;;;13.90;99.90;;;;;;7294772;19;20217;-91
2023/10/28 08:27:17;;;;;;;9.13;1.80;;;14.10;99.90;;;;;;7296264;19;20181;-90
2023/10/28 08:29:43;;;;;;;12.97;2.00;;;14.20;99.90;;;;;;7293991;19;20197;-91
2023/10/28 08:32:13;;;;;;;8.70;1.70;;;14.40;99.90;;;;;;7294560;19;20198;-90
2023/10/28 08:34:39;;;;;;;13.73;1.70;;;14.60;99.90;;;;;;7299382;19;20187;-90
2023/10/28 08:37:07;;;;;;;8.27;1.67;;;14.60;99.90;;;;;;7318019;19;20209;-90
2023/10/28 08:39:36;;;;;;;10.53;1.33;;;14.50;99.90;;;;;;7297934;19;20220;-88
2023/10/28 08:42:05;;;;;;;18.23;2.03;;;14.50;99.90;;;;;;7297458;19;20186;-90
2023/10/28 08:44:34;;;;;;;7.20;1.50;;;14.40;99.90;;;;;;7298901;19;20195;-90
2023/10/28 08:47:06;;;;;;;8.40;1.70;;;14.60;99.90;;;;;;7301562;19;20263;-89
2023/10/28 08:49:36;;;;;;;9.80;1.80;;;14.70;99.90;;;;;;7290227;19;20191;-91
2023/10/28 08:52:04;;;;;;;11.37;1.80;;;14.80;99.90;;;;;;7290955;19;20190;-90
2023/10/28 08:54:32;;;;;;;10.33;1.70;;;14.80;99.90;;;;;;7289687;19;21250;-89
2023/10/28 08:57:00;;;;;;;8.50;1.70;;;14.60;99.90;;;;;;7288116;19;20294;-91
2023/10/28 08:59:29;;;;;;;14.00;2.03;;;14.70;99.90;;;;;;7287087;19;20182;-89
2023/10/28 09:01:57;;;;;;;12.33;1.90;;;14.80;99.90;;;;;;7288012;19;20191;-89
2023/10/28 09:04:23;;;;;;;13.67;1.97;;;14.90;99.90;;;;;;7290430;19;20211;-90
2023/10/28 09:06:52;;;;;;;10.97;2.23;;;15.00;99.90;;;;;;7288922;19;20194;-91
2023/10/28 09:09:20;;;;;;;10.67;2.10;;;14.90;99.90;;;;;;7288423;19;20231;-90
2023/10/28 09:11:47;;;;;;;14.20;2.23;;;14.90;99.90;;;;;;7282978;19;20204;-89
2023/10/28 09:14:14;;;;;;;11.20;2.00;;;14.90;99.90;;;;;;7285695;19;20200;-91
2023/10/28 09:16:40;;;;;;;12.97;2.13;;;15.00;99.90;;;;;;7283484;19;20192;-90
2023/10/28 09:19:20;;;;;;;9.53;2.10;;;15.00;99.90;;;;;;7309097;19;21007;-91
2023/10/28 09:21:51;;;;;;;16.80;2.10;;;15.20;99.90;;;;;;7182091;19;2006052;-91
2023/10/28 09:24:17;;;;;;;11.70;2.00;;;15.40;99.90;;;;;;7282647;19;20200;-92
2023/10/28 09:26:43;;;;;;;11.07;2.30;;;15.60;99.90;;;;;;7284356;19;20194;-90
2023/10/28 09:29:09;;;;;;;12.10;2.43;;;15.80;99.90;;;;;;7283370;19;20544;-90
2023/10/28 09:31:37;;;;;;;10.57;2.20;;;15.80;99.90;;;;;;7306636;19;20202;-91
2023/10/28 09:34:02;;;;;;;13.80;2.70;;;15.90;99.90;;;;;;7283664;19;20199;-91
2023/10/28 09:36:32;;;;;;;15.03;2.27;;;16.00;99.90;;;;;;7285691;19;20221;-91
2023/10/28 09:39:00;;;;;;;14.97;2.23;;;15.90;99.90;;;;;;7284459;19;20201;-90
2023/10/28 09:41:26;;;;;;;14.23;2.23;;;15.80;99.90;;;;;;7283817;19;20188;-90
2023/10/28 09:43:53;;;;;;;17.70;2.57;;;15.90;99.90;;;;;;7285287;19;20192;-90
2023/10/28 09:46:26;;;;;;;13.53;2.50;;;15.80;99.90;;;;;;7282086;19;20565;-91
2023/10/28 09:48:57;;;;;;;16.53;2.23;;;15.90;99.90;;;;;;7284367;19;20193;-90
2023/10/28 09:51:24;;;;;;;10.97;2.07;;;15.90;99.90;;;;;;7286366;19;20635;-92
2023/10/28 09:54:02;;;;;;;13.17;2.27;;;15.60;99.90;;;;;;7290812;19;20207;-90
2023/10/28 09:56:34;;;;;;;15.37;2.17;;;15.80;99.90;;;;;;7285856;19;20186;-91
2023/10/28 09:59:13;;;;;;;15.60;2.33;;;15.80;99.90;;;;;;7286202;19;20189;-91
2023/10/28 10:01:55;;;;;;;16.03;2.50;;;15.80;99.90;;;;;;7267007;19;20244;-90
2023/10/28 10:04:23;;;;;;;20.67;2.77;;;15.80;99.90;;;;;;7283650;19;20197;-92
2023/10/28 10:06:49;;;;;;;11.53;2.40;;;15.60;99.90;;;;;;7284699;19;20209;-91
2023/10/28 10:09:18;;;;;;;14.40;2.57;;;15.60;99.90;;;;;;7285081;19;20185;-91
2023/10/28 10:11:45;;;;;;;20.30;2.97;;;15.60;99.90;;;;;;7281152;19;20234;-91
2023/10/28 10:14:12;;;;;;;15.67;2.50;;;15.60;99.90;;;;;;7284457;19;20196;-91
2023/10/28 10:16:55;;;;;;;17.87;2.80;;;15.80;99.90;;;;;;7294274;19;20201;-92
2023/10/28 10:19:35;;;;;;;14.87;2.50;;;15.80;99.90;;;;;;7283800;19;20187;-90
2023/10/28 10:22:06;;;;;;;12.30;2.57;;;15.80;99.90;;;;;;7290413;19;20206;-91
2023/10/28 10:24:33;;;;;;;19.13;2.70;;;15.90;99.90;;;;;;7285423;19;20196;-91
2023/10/28 10:27:00;;;;;;;14.70;2.37;;;16.00;99.90;;;;;;7286208;19;20185;-89
2023/10/28 10:29:26;;;;;;;17.30;2.80;;;15.90;99.90;;;;;;7282742;19;20215;-90
2023/10/28 10:31:53;;;;;;;15.27;2.93;;;16.00;99.90;;;;;;7281398;19;20217;-90
2023/10/28 10:34:33;;;;;;;12.07;2.73;;;15.80;99.90;;;;;;7282298;19;20205;-90
2023/10/28 10:37:00;;;;;;;14.63;2.57;;;15.70;99.90;;;;;;7281433;19;21076;-90
2023/10/28 10:39:26;;;;;;;16.63;2.43;;;15.80;99.90;;;;;;7283636;19;20192;-90
2023/10/28 10:41:56;;;;;;;17.23;2.57;;;15.80;99.90;;;;;;7285407;19;20199;-90
2023/10/28 10:44:25;;;;;;;13.97;2.40;;;16.00;99.90;;;;;;7278712;19;20191;-90
2023/10/28 10:46:57;;;;;;;14.63;2.20;;;16.20;99.90;;;;;;7283953;19;20201;-90
2023/10/28 10:49:24;;;;;;;13.97;2.87;;;16.60;99.90;;;;;;7278813;19;20977;-91
2023/10/28 10:51:51;;;;;;;17.73;2.70;;;17.00;99.90;;;;;;7282425;19;20186;-89
2023/10/28 10:54:18;;;;;;;10.27;2.13;;;17.60;99.90;;;;;;7281107;19;20193;-90
2023/10/28 10:56:44;;;;;;;15.00;2.80;;;18.00;99.90;;;;;;7282375;19;20266;-91
2023/10/28 10:59:10;;;;;;;10.90;2.40;;;18.60;99.90;;;;;;7279786;19;20201;-90
2023/10/28 11:01:38;;;;;;;14.03;2.60;;;19.10;99.90;;;;;;7305267;19;20248;-91
2023/10/28 11:04:05;;;;;;;16.27;2.33;;;19.30;99.90;;;;;;7281159;19;20193;-91
2023/10/28 11:06:31;;;;;;;13.00;2.60;;;19.00;99.90;;;;;;7282018;19;20193;-89
2023/10/28 11:09:00;;;;;;;15.80;2.80;;;18.70;99.90;;;;;;7282374;19;20206;-90
2023/10/28 11:11:26;;;;;;;14.30;2.50;;;18.60;99.90;;;;;;7280482;19;20676;-91
2023/10/28 11:13:51;;;;;;;14.23;2.30;;;18.40;99.90;;;;;;7282461;19;20227;-91
2023/10/28 11:16:23;;;;;;;15.87;2.37;;;18.10;99.90;;;;;;7280896;19;20184;-90
2023/10/28 11:18:49;;;;;;;11.33;2.20;;;18.10;99.90;;;;;;7282174;19;20191;-91
2023/10/28 11:21:15;;;;;;;13.83;2.50;;;18.30;99.90;;;;;;7281688;19;20201;-90
2023/10/28 11:23:41;;;;;;;14.77;2.53;;;18.40;99.90;;;;;;7280399;19;20190;-91
2023/10/28 11:26:07;;;;;;;15.27;2.57;;;18.30;99.90;;;;;;7306130;19;20578;-91
2023/10/28 11:28:34;;;;;;;12.57;2.70;;;18.10;99.90;;;;;;7282106;19;20176;-90
2023/10/28 11:31:00;;;;;;;12.87;2.30;;;17.80;99.90;;;;;;7282423;19;20207;-90
2023/10/28 11:33:29;;;;;;;16.37;2.50;;;17.80;99.90;;;;;;7284460;19;20190;-90
2023/10/28 11:35:56;;;;;;;12.50;1.90;;;17.70;99.90;;;;;;7282102;19;20190;-89
2023/10/28 11:38:22;;;;;;;15.80;2.80;;;18.10;99.90;;;;;;7281822;19;20215;-89
2023/10/28 11:41:05;;;;;;;10.40;2.20;;;18.30;99.90;;;;;;7285576;19;20184;-90
2023/10/28 11:43:31;;;;;;;14.27;2.33;;;18.50;99.90;;;;;;7284140;19;20199;-89
2023/10/28 11:45:57;;;;;;;10.93;1.87;;;18.20;99.90;;;;;;7280282;19;20192;-89
2023/10/28 11:48:22;;;;;;;14.83;2.47;;;18.90;99.90;;;;;;7282116;19;20445;-89
2023/10/28 11:50:48;;;;;;;13.60;2.50;;;19.70;99.90;;;;;;7280656;19;20193;-90
2023/10/28 11:53:24;;;;;;;11.00;2.00;;;19.20;99.90;;;;;;7282830;19;20197;-90
2023/10/28 11:55:50;;;;;;;13.53;2.87;;;19.00;99.90;;;;;;7280748;19;20202;-90
2023/10/28 11:58:17;;;;;;;12.50;2.27;;;18.60;99.90;;;;;;7279708;19;20299;-89
2023/10/28 12:00:44;;;;;;;12.43;2.43;;;18.20;99.90;;;;;;7281235;19;20208;-90
2023/10/28 12:03:13;;;;;;;13.77;2.43;;;18.00;99.90;;;;;;7282662;19;20196;-90
2023/10/28 12:05:39;;;;;;;11.13;2.20;;;17.80;99.90;;;;;;7283530;19;21696;-91
2023/10/28 12:08:05;;;;;;;14.47;2.43;;;17.60;99.90;;;;;;7303305;19;20199;-90
2023/10/28 12:10:34;;;;;;;10.70;2.13;;;17.70;99.90;;;;;;7280698;19;20187;-90
2023/10/28 12:13:01;;;;;;;18.30;2.77;;;17.40;99.90;;;;;;7281227;19;20608;-90
2023/10/28 12:15:27;;;;;;;13.27;2.23;;;17.40;99.90;;;;;;7277746;19;20200;-91
2023/10/28 12:17:53;;;;;;;11.17;2.30;;;17.60;99.90;;;;;;7282310;19;20240;-90
2023/10/28 12:20:19;;;;;;;12.23;2.53;;;18.10;99.90;;;;;;7281789;19;20698;-90
2023/10/28 12:22:45;;;;;;;13.13;2.73;;;18.60;99.90;;;;;;7283022;19;20194;-88
2023/10/28 12:25:13;;;;;;;15.10;2.83;;;18.80;99.90;;;;;;7287593;19;20209;-91
2023/10/28 12:27:39;;;;;;;9.53;1.97;;;19.30;99.90;;;;;;7293045;19;20525;-90
2023/10/28 12:30:08;;;;;;;8.70;1.93;;;19.80;99.90;;;;;;7307730;19;20189;-91
2023/10/28 12:32:34;;;;;;;10.93;1.97;;;19.90;99.90;;;;;;7290233;19;20546;-90
2023/10/28 12:35:00;;;;;;;12.03;2.33;;;19.60;99.90;;;;;;7287440;19;20240;-91
2023/10/28 12:37:28;;;;;;;11.93;2.33;;;19.30;99.90;;;;;;7286947;19;20208;-90